createdAt,value
2018-08-07T00:01:36.151Z,9.57
2018-08-07T00:04:04.932Z,9.20
2018-08-07T00:06:33.540Z,9.13
2018-08-07T00:09:02.286Z,9.37
2018-08-07T00:11:31.006Z,9.70
2018-08-07T00:13:59.735Z,9.03
2018-08-07T00:16:28.401Z,9.40
2018-08-07T00:18:57.054Z,8.83
2018-08-07T00:21:25.682Z,8.90
2018-08-07T00:23:54.341Z,8.83
2018-08-07T00:26:22.991Z,8.17
2018-08-07T00:28:51.589Z,8.33
2018-08-07T00:31:20.206Z,8.97
2018-08-07T00:33:48.839Z,9.60
2018-08-07T00:36:17.506Z,9.40
2018-08-07T00:38:46.155Z,9.20
2018-08-07T00:41:14.820Z,9.73
2018-08-07T00:43:43.470Z,9.17
2018-08-07T00:46:12.172Z,8.70
2018-08-07T00:48:40.878Z,9.40
2018-08-07T00:51:09.534Z,8.87
2018-08-07T00:53:38.152Z,9.77
2018-08-07T00:56:06.912Z,8.73
2018-08-07T00:58:35.615Z,9.03
2018-08-07T01:01:04.234Z,8.03
2018-08-07T01:03:33.132Z,8.90
2018-08-07T01:06:01.835Z,9.30
2018-08-07T01:08:30.450Z,9.57
2018-08-07T01:10:59.118Z,9.50
2018-08-07T01:13:27.787Z,9.23
2018-08-07T01:15:56.454Z,9.33
2018-08-07T01:18:25.114Z,9.53
2018-08-07T01:20:53.681Z,9.13
2018-08-07T01:23:22.374Z,9.10
2018-08-07T01:25:51.062Z,9.63
2018-08-07T01:28:19.723Z,9.50
2018-08-07T01:30:48.360Z,9.97
2018-08-07T01:33:16.932Z,9.47
2018-08-07T01:35:45.574Z,9.60
2018-08-07T01:38:14.243Z,9.80
2018-08-07T01:40:42.896Z,9.47
2018-08-07T01:43:11.535Z,10.43
2018-08-07T01:45:40.183Z,10.13
2018-08-07T01:48:08.834Z,9.50
2018-08-07T01:50:37.509Z,9.70
2018-08-07T01:53:06.219Z,9.47
2018-08-07T01:55:34.840Z,9.50
2018-08-07T01:58:03.507Z,10.40
2018-08-07T02:00:32.161Z,9.87
2018-08-07T02:03:00.795Z,9.83
2018-08-07T02:05:29.386Z,9.67
2018-08-07T02:07:57.991Z,10.20
2018-08-07T02:10:26.639Z,9.80
2018-08-07T02:12:55.282Z,10.80
2018-08-07T02:15:23.946Z,11.13
2018-08-07T02:17:52.575Z,11.40
2018-08-07T02:20:21.187Z,10.77
2018-08-07T02:22:49.858Z,9.87
2018-08-07T02:25:19.562Z,10.33
2018-08-07T02:27:48.694Z,11.03
2018-08-07T02:30:18.016Z,9.40
2018-08-07T02:32:46.661Z,9.17
2018-08-07T02:35:16.202Z,8.63
2018-08-07T02:37:45.744Z,9.70
2018-08-07T02:40:14.894Z,9.30
2018-08-07T02:42:43.974Z,9.87
2018-08-07T02:45:16.446Z,10.63
2018-08-07T02:47:45.562Z,11.07
2018-08-07T02:50:16.825Z,9.60
2018-08-07T02:52:45.631Z,9.83
2018-08-07T02:55:14.322Z,10.83
2018-08-07T02:57:43.624Z,9.47
2018-08-07T03:00:17.763Z,9.53
2018-08-07T03:02:46.638Z,9.27
2018-08-07T03:05:15.429Z,9.63
2018-08-07T03:07:44.175Z,10.93
2018-08-07T03:10:12.819Z,10.27
2018-08-07T03:12:41.438Z,9.90
2018-08-07T03:15:13.757Z,10.53
2018-08-07T03:17:43.062Z,10.23
2018-08-07T03:20:11.753Z,10.90
2018-08-07T03:22:40.394Z,11.77
2018-08-07T03:25:10.763Z,12.23
2018-08-07T03:27:39.410Z,11.03
2018-08-07T03:30:10.295Z,12.13
2018-08-07T03:32:39.155Z,10.77
2018-08-07T03:35:08.022Z,11.07
2018-08-07T03:37:37.368Z,10.73
2018-08-07T03:40:08.411Z,11.97
2018-08-07T03:42:37.163Z,10.63
2018-08-07T03:45:06.585Z,10.40
2018-08-07T03:47:35.333Z,10.10
2018-08-07T03:50:04.018Z,10.70
2018-08-07T03:52:32.743Z,10.97
2018-08-07T03:55:01.407Z,10.60
2018-08-07T03:57:30.127Z,11.30
2018-08-07T03:59:58.743Z,11.23
2018-08-07T04:02:27.407Z,10.50
2018-08-07T04:04:56.007Z,11.27
2018-08-07T04:07:24.647Z,11.03
2018-08-07T04:09:53.287Z,10.70
2018-08-07T04:12:22.264Z,11.23
2018-08-07T04:14:50.850Z,11.43
2018-08-07T04:17:19.486Z,10.40
2018-08-07T04:19:48.127Z,11.57
2018-08-07T04:22:16.746Z,10.33
2018-08-07T04:24:45.383Z,12.30
2018-08-07T04:27:14.058Z,14.90
2018-08-07T04:29:42.668Z,16.20
2018-08-07T04:32:11.291Z,17.43
2018-08-07T04:34:39.961Z,16.73
2018-08-07T04:37:08.539Z,18.27
2018-08-07T04:39:37.203Z,16.93
2018-08-07T04:42:05.863Z,16.87
2018-08-07T04:44:34.812Z,16.43
2018-08-07T04:47:03.467Z,16.57
2018-08-07T04:49:32.106Z,16.60
2018-08-07T04:52:00.779Z,15.77
2018-08-07T04:54:29.506Z,15.60
2018-08-07T04:56:58.118Z,15.80
2018-08-07T04:59:26.678Z,15.97
2018-08-07T05:01:55.339Z,16.57
2018-08-07T05:04:23.957Z,17.53
2018-08-07T05:06:52.619Z,18.40
2018-08-07T05:09:21.258Z,16.57
2018-08-07T05:11:49.884Z,17.17
2018-08-07T05:14:18.559Z,16.97
2018-08-07T05:16:47.246Z,18.37
2018-08-07T05:19:15.907Z,18.00
2018-08-07T05:21:44.560Z,18.50
2018-08-07T05:24:13.244Z,18.33
2018-08-07T05:26:41.903Z,19.20
2018-08-07T05:29:10.643Z,19.80
2018-08-07T05:31:39.270Z,17.77
2018-08-07T05:34:08.230Z,18.27
2018-08-07T05:36:36.893Z,19.73
2018-08-07T05:39:08.143Z,20.27
2018-08-07T05:41:36.823Z,21.47
2018-08-07T05:44:05.563Z,18.60
2018-08-07T05:46:34.287Z,19.70
2018-08-07T05:49:02.987Z,19.35
2018-08-07T05:51:31.902Z,19.95
2018-08-07T05:54:00.626Z,20.30
2018-08-07T05:56:29.378Z,20.92
2018-08-07T05:58:57.998Z,19.45
2018-08-07T06:01:26.641Z,21.02
2018-08-07T06:03:55.424Z,21.80
2018-08-07T06:06:24.218Z,20.90
2018-08-07T06:08:52.853Z,21.70
2018-08-07T06:11:21.550Z,22.98
2018-08-07T06:13:50.193Z,21.75
2018-08-07T06:16:18.811Z,21.37
2018-08-07T06:18:47.484Z,20.32
2018-08-07T06:21:16.162Z,22.30
2018-08-07T06:23:44.784Z,21.97
2018-08-07T06:26:13.486Z,19.62
2018-08-07T06:28:42.249Z,20.37
2018-08-07T06:31:10.858Z,19.90
2018-08-07T06:33:39.566Z,18.90
2018-08-07T06:36:08.302Z,19.57
2018-08-07T06:38:36.956Z,20.35
2018-08-07T06:41:05.651Z,19.00
2018-08-07T06:43:34.362Z,19.20
2018-08-07T06:46:03.031Z,17.95
2018-08-07T06:48:31.719Z,20.30
2018-08-07T06:51:00.367Z,19.20
2018-08-07T06:53:28.950Z,20.85
2018-08-07T06:55:57.663Z,20.43
2018-08-07T06:58:26.316Z,22.32
2018-08-07T07:00:55.003Z,22.90
2018-08-07T07:03:23.629Z,21.23
2018-08-07T07:05:52.294Z,22.73
2018-08-07T07:08:20.942Z,23.00
2018-08-07T07:10:49.551Z,21.85
2018-08-07T07:13:18.220Z,22.15
2018-08-07T07:15:46.891Z,20.43
2018-08-07T07:18:15.554Z,21.12
2018-08-07T07:20:44.193Z,21.55
2018-08-07T07:23:12.804Z,21.30
2018-08-07T07:25:41.422Z,21.62
2018-08-07T07:28:10.073Z,20.68
2018-08-07T07:30:38.768Z,21.20
2018-08-07T07:33:07.448Z,20.20
2018-08-07T07:35:36.112Z,21.27
2018-08-07T07:38:04.766Z,20.30
2018-08-07T07:40:33.379Z,19.60
2018-08-07T07:43:02.242Z,20.27
2018-08-07T07:45:30.975Z,19.67
2018-08-07T07:47:59.616Z,19.00
2018-08-07T07:50:28.313Z,18.82
2018-08-07T07:52:56.931Z,18.20
2018-08-07T07:55:25.630Z,19.92
2018-08-07T07:57:54.555Z,18.15
2018-08-07T08:00:25.364Z,16.67
2018-08-07T08:02:54.258Z,17.37
2018-08-07T08:05:23.923Z,15.93
2018-08-07T08:07:52.886Z,16.15
2018-08-07T08:10:21.556Z,17.07
2018-08-07T08:12:50.312Z,15.15
2018-08-07T08:15:19.409Z,16.52
2018-08-07T08:17:48.808Z,15.68
2018-08-07T08:20:22.479Z,15.90
2018-08-07T08:22:52.023Z,15.80
2018-08-07T08:25:20.816Z,16.40
2018-08-07T08:27:49.548Z,16.23
2018-08-07T08:30:18.626Z,17.10
2018-08-07T08:32:47.632Z,15.55
2018-08-07T08:35:17.516Z,16.07
2018-08-07T08:37:46.678Z,16.93
2018-08-07T08:40:17.760Z,16.12
2018-08-07T08:42:46.483Z,14.95
2018-08-07T08:45:19.590Z,14.55
2018-08-07T08:47:50.472Z,14.80
2018-08-07T08:50:20.216Z,14.70
2018-08-07T08:52:48.962Z,17.70
2018-08-07T08:55:17.626Z,15.78
2018-08-07T08:57:46.496Z,14.28
2018-08-07T09:00:18.903Z,12.68
2018-08-07T09:02:47.950Z,10.55
2018-08-07T09:05:16.712Z,11.83
2018-08-07T09:07:45.625Z,12.60
2018-08-07T09:10:19.528Z,13.95
2018-08-07T09:12:48.617Z,13.98
2018-08-07T09:15:17.458Z,14.47
2018-08-07T09:17:46.218Z,11.85
2018-08-07T09:20:18.171Z,11.97
2018-08-07T09:22:46.783Z,11.97
2018-08-07T09:25:15.523Z,11.88
2018-08-07T09:27:44.298Z,11.35
2018-08-07T09:30:19.503Z,11.48
2018-08-07T09:32:49.203Z,11.73
2018-08-07T09:35:18.702Z,11.18
2018-08-07T09:37:47.454Z,11.63
2018-08-07T09:40:17.329Z,10.82
2018-08-07T09:42:47.410Z,10.63
2018-08-07T09:45:21.722Z,9.55
2018-08-07T09:47:50.489Z,8.73
2018-08-07T09:50:19.617Z,8.13
2018-08-07T09:52:48.880Z,8.98
2018-08-07T09:55:17.603Z,9.50
2018-08-07T09:57:46.298Z,10.28
2018-08-07T10:00:22.138Z,9.65
2018-08-07T10:02:52.631Z,9.38
2018-08-07T10:05:23.240Z,7.10
2018-08-07T10:07:51.948Z,10.65
2018-08-07T10:10:21.033Z,7.00
2018-08-07T10:12:49.738Z,6.70
2018-08-07T10:15:18.643Z,6.80
2018-08-07T10:17:47.403Z,7.60
2018-08-07T10:20:16.351Z,7.00
2018-08-07T10:22:45.169Z,7.22
2018-08-07T10:25:16.062Z,6.92
2018-08-07T10:27:45.758Z,8.03
2018-08-07T10:30:16.694Z,8.33
2018-08-07T10:32:45.506Z,7.83
2018-08-07T10:35:14.817Z,7.95
2018-08-07T10:37:44.295Z,7.05
2018-08-07T10:40:14.689Z,7.62
2018-08-07T10:42:43.486Z,7.25
2018-08-07T10:45:16.294Z,8.03
2018-08-07T10:47:45.059Z,7.42
2018-08-07T10:50:16.963Z,7.12
2018-08-07T10:52:45.804Z,6.72
2018-08-07T10:55:14.588Z,7.70
2018-08-07T10:57:45.298Z,6.67
2018-08-07T11:00:22.136Z,7.55
2018-08-07T11:02:51.599Z,7.33
2018-08-07T11:05:21.590Z,7.10
2018-08-07T11:07:50.467Z,6.83
2018-08-07T11:10:19.495Z,6.50
2018-08-07T11:12:48.541Z,6.25
2018-08-07T11:15:21.407Z,6.62
2018-08-07T11:17:50.837Z,6.97
2018-08-07T11:20:19.714Z,6.80
2018-08-07T11:22:49.512Z,7.53
2018-08-07T11:25:19.384Z,7.47
2018-08-07T11:27:48.135Z,6.70
2018-08-07T11:30:18.702Z,6.70
2018-08-07T11:32:47.803Z,6.60
2018-08-07T11:35:16.774Z,7.17
2018-08-07T11:37:47.594Z,7.05
2018-08-07T11:40:17.955Z,6.22
2018-08-07T11:42:47.604Z,7.15
2018-08-07T11:45:31.078Z,7.12
2018-08-07T11:47:59.883Z,7.25
2018-08-07T11:50:30.854Z,7.75
2018-08-07T11:52:59.618Z,7.15
2018-08-07T11:55:28.795Z,6.92
2018-08-07T11:57:57.527Z,7.10
2018-08-07T12:00:40.041Z,10.85
2018-08-07T12:03:11.670Z,7.78
2018-08-07T12:05:40.324Z,7.08
2018-08-07T12:08:09.356Z,7.10
2018-08-07T12:10:38.012Z,7.42
2018-08-07T12:13:06.823Z,7.08
2018-08-07T12:15:35.513Z,7.70
2018-08-07T12:18:04.182Z,7.20
2018-08-07T12:20:32.778Z,7.37
2018-08-07T12:23:01.508Z,6.72
2018-08-07T12:25:30.327Z,7.90
2018-08-07T12:27:59.030Z,7.58
2018-08-07T12:30:29.776Z,6.65
2018-08-07T12:32:58.982Z,6.87
2018-08-07T12:35:27.691Z,6.85
2018-08-07T12:37:56.476Z,7.03
2018-08-07T12:40:27.828Z,6.50
2018-08-07T12:42:59.704Z,7.47
2018-08-07T12:45:28.408Z,6.95
2018-08-07T12:47:57.161Z,6.58
2018-08-07T12:50:25.810Z,7.85
2018-08-07T12:52:54.551Z,7.30
2018-08-07T12:55:24.011Z,6.65
2018-08-07T12:57:53.175Z,7.28
2018-08-07T13:00:23.314Z,8.50
2018-08-07T13:02:52.118Z,9.60
2018-08-07T13:05:20.960Z,9.20
2018-08-07T13:07:49.745Z,9.70
2018-08-07T13:10:19.886Z,9.80
2018-08-07T13:12:49.248Z,9.90
2018-08-07T13:15:19.088Z,10.23
2018-08-07T13:17:48.159Z,10.38
2018-08-07T13:20:16.972Z,10.82
2018-08-07T13:22:46.317Z,11.78
2018-08-07T13:25:17.039Z,11.48
2018-08-07T13:27:45.746Z,15.40
2018-08-07T13:30:25.656Z,10.53
2018-08-07T13:32:54.464Z,11.70
2018-08-07T13:35:23.326Z,10.55
2018-08-07T13:37:52.646Z,13.58
2018-08-07T13:40:22.817Z,11.40
2018-08-07T13:42:51.462Z,12.18
2018-08-07T13:45:21.767Z,11.73
2018-08-07T13:47:50.498Z,11.30
2018-08-07T13:50:20.246Z,11.25
2018-08-07T13:52:49.545Z,10.50
2018-08-07T13:55:19.134Z,10.30
2018-08-07T13:57:47.997Z,10.35
2018-08-07T14:00:19.619Z,10.60
2018-08-07T14:02:48.977Z,10.88
2018-08-07T14:05:18.584Z,10.72
2018-08-07T14:07:48.437Z,11.18
2018-08-07T14:10:17.844Z,11.33
2018-08-07T14:12:46.578Z,10.13
2018-08-07T14:15:16.388Z,11.03
2018-08-07T14:17:45.586Z,10.00
2018-08-07T14:20:15.298Z,10.70
2018-08-07T14:22:44.054Z,10.15
2018-08-07T14:25:21.850Z,9.20
2018-08-07T14:27:50.606Z,9.20
2018-08-07T14:30:21.386Z,9.25
2018-08-07T14:32:50.187Z,9.35
2018-08-07T14:35:19.137Z,9.10
2018-08-07T14:37:48.383Z,9.50
2018-08-07T14:40:22.189Z,8.30
2018-08-07T14:42:51.423Z,8.80
2018-08-07T14:45:24.447Z,8.78
2018-08-07T14:47:53.828Z,8.88
2018-08-07T14:50:24.532Z,8.15
2018-08-07T14:52:53.519Z,8.65
2018-08-07T14:55:22.349Z,8.55
2018-08-07T14:57:51.419Z,8.33
2018-08-07T15:00:25.192Z,8.60
2018-08-07T15:02:53.932Z,7.75
2018-08-07T15:05:22.712Z,8.15
2018-08-07T15:07:51.366Z,9.30
2018-08-07T15:10:25.539Z,8.65
2018-08-07T15:12:54.335Z,8.70
2018-08-07T15:15:28.184Z,7.78
2018-08-07T15:17:56.936Z,9.95
2018-08-07T15:20:27.188Z,9.58
2018-08-07T15:22:56.508Z,9.53
2018-08-07T15:25:25.590Z,9.50
2018-08-07T15:27:54.230Z,11.85
2018-08-07T15:30:24.849Z,8.98
2018-08-07T15:32:53.898Z,8.40
2018-08-07T15:35:24.001Z,8.83
2018-08-07T15:37:52.638Z,10.28
2018-08-07T15:40:21.590Z,8.35
2018-08-07T15:42:50.479Z,9.28
2018-08-07T15:45:21.462Z,8.65
2018-08-07T15:47:50.196Z,9.95
2018-08-07T15:50:19.475Z,8.75
2018-08-07T15:52:49.665Z,9.58
2018-08-07T15:55:19.923Z,9.33
2018-08-07T15:57:48.645Z,8.80
2018-08-07T16:00:20.605Z,9.73
2018-08-07T16:02:49.474Z,9.75
2018-08-07T16:05:18.494Z,8.93
2018-08-07T16:07:47.558Z,8.20
2018-08-07T16:10:17.443Z,8.17
2018-08-07T16:13:24.044Z,8.35
2018-08-07T16:15:52.732Z,8.75
2018-08-07T16:18:21.396Z,8.28
2018-08-07T16:20:50.188Z,8.37
2018-08-07T16:23:18.947Z,9.63
2018-08-07T16:25:47.610Z,9.10
2018-08-07T16:28:16.294Z,8.47
2018-08-07T16:30:44.981Z,7.87
2018-08-07T16:33:13.655Z,9.10
2018-08-07T16:35:42.438Z,8.40
2018-08-07T16:38:11.147Z,9.53
2018-08-07T16:40:39.879Z,9.97
2018-08-07T16:43:08.586Z,10.50
2018-08-07T16:45:37.232Z,9.80
2018-08-07T16:48:06.341Z,8.67
2018-08-07T16:50:35.195Z,9.27
2018-08-07T16:53:03.878Z,8.73
2018-08-07T16:55:32.527Z,9.80
2018-08-07T16:58:01.263Z,9.77
2018-08-07T17:00:30.080Z,10.60
2018-08-07T17:02:58.755Z,9.80
2018-08-07T17:05:27.450Z,13.67
2018-08-07T17:07:56.262Z,10.17
2018-08-07T17:10:27.616Z,11.07
2018-08-07T17:12:56.418Z,9.83
2018-08-07T17:15:25.177Z,10.20
2018-08-07T17:17:53.926Z,10.17
2018-08-07T17:20:23.382Z,10.57
2018-08-07T17:22:52.686Z,10.53
2018-08-07T17:25:22.478Z,11.00
2018-08-07T17:27:51.438Z,10.93
2018-08-07T17:30:22.575Z,11.07
2018-08-07T17:32:51.403Z,10.73
2018-08-07T17:35:22.445Z,11.37
2018-08-07T17:37:52.540Z,11.13
2018-08-07T17:40:23.614Z,12.10
2018-08-07T17:42:52.389Z,11.97
2018-08-07T17:45:21.408Z,12.70
2018-08-07T17:47:50.316Z,12.93
2018-08-07T17:50:20.397Z,12.40
2018-08-07T17:52:49.223Z,11.90
2018-08-07T17:55:18.219Z,11.77
2018-08-07T17:57:47.664Z,12.73
2018-08-07T18:00:19.071Z,12.80
2018-08-07T18:02:47.908Z,13.13
2018-08-07T18:05:16.586Z,13.47
2018-08-07T18:07:46.858Z,12.47
2018-08-07T18:10:16.913Z,14.00
2018-08-07T18:12:45.792Z,12.57
2018-08-07T18:15:15.679Z,14.80
2018-08-07T18:17:44.876Z,15.83
2018-08-07T18:20:15.284Z,15.33
2018-08-07T18:22:44.054Z,15.33
2018-08-07T18:25:12.796Z,17.33
2018-08-07T18:27:41.628Z,22.37
2018-08-07T18:30:15.312Z,15.23
2018-08-07T18:32:44.465Z,14.23
2018-08-07T18:35:17.123Z,13.53
2018-08-07T18:37:45.795Z,14.40
2018-08-07T18:40:14.535Z,13.50
2018-08-07T18:42:43.259Z,15.87
2018-08-07T18:45:13.152Z,15.17
2018-08-07T18:47:42.496Z,16.33
2018-08-07T18:50:13.681Z,16.30
2018-08-07T18:52:42.554Z,14.13
2018-08-07T18:55:12.967Z,15.67
2018-08-07T18:57:42.152Z,15.97
2018-08-07T19:00:15.645Z,15.83
2018-08-07T19:02:44.367Z,15.97
2018-08-07T19:05:14.848Z,16.50
2018-08-07T19:07:43.510Z,16.17
2018-08-07T19:10:12.618Z,17.43
2018-08-07T19:12:41.458Z,18.17
2018-08-07T19:15:11.235Z,16.70
2018-08-07T19:17:39.901Z,17.33
2018-08-07T19:20:09.668Z,22.37
2018-08-07T19:22:38.359Z,17.30
2018-08-07T19:25:08.316Z,17.17
2018-08-07T19:27:37.097Z,19.43
2018-08-07T19:30:09.914Z,17.37
2018-08-07T19:32:39.032Z,16.87
2018-08-07T19:35:08.401Z,16.80
2018-08-07T19:37:37.244Z,15.67
2018-08-07T19:40:07.636Z,15.83
2018-08-07T19:42:36.782Z,15.47
2018-08-07T19:45:07.497Z,16.63
2018-08-07T19:47:36.254Z,16.07
2018-08-07T19:50:05.923Z,15.80
2018-08-07T19:52:34.891Z,16.03
2018-08-07T19:55:03.638Z,16.10
2018-08-07T19:57:32.430Z,17.07
2018-08-07T20:00:01.168Z,16.00
2018-08-07T20:02:29.818Z,16.13
2018-08-07T20:04:58.475Z,16.60
2018-08-07T20:07:27.142Z,16.30
2018-08-07T20:09:55.811Z,17.47
2018-08-07T20:12:24.494Z,16.63
2018-08-07T20:14:53.116Z,17.23
2018-08-07T20:17:21.764Z,17.17
2018-08-07T20:19:50.522Z,17.53
2018-08-07T20:22:19.424Z,17.40
2018-08-07T20:24:48.142Z,16.90
2018-08-07T20:27:16.849Z,18.63
2018-08-07T20:29:45.534Z,17.77
2018-08-07T20:32:14.182Z,16.63
2018-08-07T20:34:42.895Z,16.40
2018-08-07T20:37:11.551Z,16.30
2018-08-07T20:39:40.226Z,17.13
2018-08-07T20:42:08.936Z,17.70
2018-08-07T20:44:37.622Z,17.93
2018-08-07T20:47:06.390Z,18.47
2018-08-07T20:49:35.116Z,17.83
2018-08-07T20:52:03.775Z,19.17
2018-08-07T20:54:32.447Z,27.93
2018-08-07T20:57:01.085Z,26.47
2018-08-07T20:59:29.729Z,19.10
2018-08-07T21:01:58.440Z,19.63
2018-08-07T21:04:27.124Z,18.57
2018-08-07T21:06:55.792Z,18.50
2018-08-07T21:09:24.421Z,19.30
2018-08-07T21:11:53.136Z,18.40
2018-08-07T21:14:21.851Z,18.30
2018-08-07T21:16:50.587Z,19.17
2018-08-07T21:19:19.277Z,18.87
2018-08-07T21:21:47.948Z,19.27
2018-08-07T21:24:16.621Z,18.33
2018-08-07T21:26:45.319Z,16.93
2018-08-07T21:29:13.998Z,17.40
2018-08-07T21:31:42.648Z,17.70
2018-08-07T21:34:11.272Z,17.80
2018-08-07T21:36:40.045Z,19.53
2018-08-07T21:39:09.844Z,19.87
2018-08-07T21:41:38.727Z,19.60
2018-08-07T21:44:07.623Z,18.37
2018-08-07T21:46:36.744Z,18.10
2018-08-07T21:49:05.656Z,18.10
2018-08-07T21:51:34.333Z,17.77
2018-08-07T21:54:03.157Z,20.27
2018-08-07T21:56:31.900Z,21.30
2018-08-07T21:59:00.628Z,20.33
2018-08-07T22:01:29.322Z,19.77
2018-08-07T22:03:57.937Z,19.57
2018-08-07T22:06:26.577Z,16.80
2018-08-07T22:08:55.222Z,16.27
2018-08-07T22:11:23.847Z,16.27
2018-08-07T22:13:52.558Z,13.73
2018-08-07T22:16:21.294Z,13.63
2018-08-07T22:18:49.996Z,14.87
2018-08-07T22:21:18.772Z,13.47
2018-08-07T22:23:47.428Z,13.93
2018-08-07T22:26:16.117Z,14.20
2018-08-07T22:28:44.777Z,14.43
2018-08-07T22:31:13.536Z,13.83
2018-08-07T22:33:42.164Z,14.03
2018-08-07T22:36:10.813Z,14.83
2018-08-07T22:38:39.466Z,15.10
2018-08-07T22:41:08.195Z,14.33
2018-08-07T22:43:36.819Z,14.73
2018-08-07T22:46:05.656Z,14.17
2018-08-07T22:48:34.271Z,14.73
2018-08-07T22:51:02.945Z,14.63
2018-08-07T22:53:31.630Z,14.93
2018-08-07T22:56:00.282Z,14.97
2018-08-07T22:58:28.926Z,16.87
2018-08-07T23:00:57.597Z,17.53
2018-08-07T23:03:26.289Z,16.83
2018-08-07T23:05:54.978Z,16.63
2018-08-07T23:08:23.686Z,16.73
2018-08-07T23:10:52.346Z,15.77
2018-08-07T23:13:21.009Z,17.63
2018-08-07T23:15:49.664Z,16.33
2018-08-07T23:18:18.294Z,16.30
2018-08-07T23:20:46.942Z,15.33
2018-08-07T23:23:15.590Z,16.43
2018-08-07T23:25:44.234Z,16.23
2018-08-07T23:28:12.862Z,15.90
2018-08-07T23:30:41.457Z,15.17
2018-08-07T23:33:10.185Z,14.57
2018-08-07T23:35:38.823Z,14.80
2018-08-07T23:38:07.592Z,14.60
2018-08-07T23:40:36.242Z,13.73
2018-08-07T23:43:04.935Z,14.20
2018-08-07T23:45:33.589Z,13.80
2018-08-07T23:48:02.229Z,13.73
2018-08-07T23:50:30.923Z,13.17
2018-08-07T23:52:59.615Z,13.87
2018-08-07T23:55:28.256Z,13.90
2018-08-07T23:57:56.943Z,14.03
